Time;durP1;ratioP1;P1;durP2;ratioP2;P2;SDS_P1;SDS_P2;PMS_P1;PMS_P2;Temp;Humidity;BMP_temperature;BMP_pressure;BME280_temperature;BME280_humidity;BME280_pressure;Samples;Min_cycle;Max_cycle;Signal;HPM_P1;HPM_P2
2023/10/09 00:01:05;;;;;;;10.10;5.40;;;;;;;12.47;100.00;101069.34;4977981;28;20201;-72
2023/10/09 00:03:31;;;;;;;13.33;5.67;;;;;;;12.58;100.00;101075.72;4977100;28;20225;-71
2023/10/09 00:05:58;;;;;;;14.03;5.70;;;;;;;12.54;100.00;101061.50;4980054;28;20706;-72
2023/10/09 00:08:30;;;;;;;11.97;5.67;;;;;;;12.58;100.00;101069.50;4979632;28;20591;-74
2023/10/09 00:11:14;;;;;;;9.50;5.67;;;;;;;12.65;100.00;101064.31;4976846;28;20205;-73
2023/10/09 00:13:57;;;;;;;11.53;5.60;;;;;;;12.69;100.00;101054.63;4979185;28;20235;-76
2023/10/09 00:16:35;;;;;;;8.13;4.70;;;;;;;12.60;100.00;101049.16;4979518;28;20205;-73
2023/10/09 00:19:20;;;;;;;8.37;4.80;;;;;;;12.59;100.00;101050.03;4981637;28;20219;-74
2023/10/09 00:21:47;;;;;;;9.37;4.57;;;;;;;12.60;100.00;101044.75;4980699;28;20757;-72
2023/10/09 00:24:24;;;;;;;12.03;5.50;;;;;;;12.61;100.00;101035.00;4981917;28;20224;-74
2023/10/09 00:26:55;;;;;;;7.63;4.60;;;;;;;12.59;100.00;101050.03;4983259;28;20204;-73
2023/10/09 00:29:21;;;;;;;10.50;5.43;;;;;;;12.57;100.00;101044.69;4980711;28;20785;-74
2023/10/09 00:31:50;;;;;;;12.23;5.57;;;;;;;12.68;100.00;101050.16;4983609;28;20220;-72
2023/10/09 00:34:19;;;;;;;10.53;5.77;;;;;;;12.64;100.00;101045.69;4983104;28;20239;-73
2023/10/09 00:36:52;;;;;;;15.47;5.90;;;;;;;12.58;100.00;101043.81;4981672;28;20292;-72
2023/10/09 00:39:33;;;;;;;10.50;5.53;;;;;;;12.70;100.00;101054.63;4981114;28;20219;-72
2023/10/09 00:42:00;;;;;;;11.03;4.87;;;;;;;12.64;100.00;101051.00;4983400;28;20659;-73
2023/10/09 00:44:37;;;;;;;13.37;5.60;;;;;;;12.69;100.00;101047.53;4980472;28;20356;-76
2023/10/09 00:47:20;;;;;;;11.13;6.07;;;;;;;12.65;100.00;101037.72;4980692;28;20251;-72
2023/10/09 00:49:58;;;;;;;11.50;5.40;;;;;;;12.59;100.00;101039.41;4984823;28;20728;-75
2023/10/09 00:52:39;;;;;;;11.53;5.77;;;;;;;12.44;100.00;101025.03;4986594;28;20225;-71
2023/10/09 00:55:20;;;;;;;8.00;4.57;;;;;;;12.45;100.00;101020.59;4980966;28;20891;-73
2023/10/09 00:57:59;;;;;;;12.73;5.17;;;;;;;12.48;100.00;101026.84;4981085;28;20205;-75
2023/10/09 01:00:45;;;;;;;9.00;4.50;;;;;;;12.43;100.00;101020.59;4981877;28;20583;-73
2023/10/09 01:08:30;;;;;;;11.37;4.53;;;;;;;12.34;100.00;101001.81;4980925;28;20205;-71
2023/10/09 01:11:08;;;;;;;13.20;5.53;;;;;;;12.51;100.00;101003.00;4978898;28;20244;-71
2023/10/09 01:16:21;;;;;;;9.83;5.10;;;;;;;12.47;100.00;100995.84;4982147;28;20589;-72
2023/10/09 01:18:52;;;;;;;13.17;5.70;;;;;;;12.61;100.00;101005.78;4981883;28;20625;-71
2023/10/09 01:21:31;;;;;;;11.57;5.50;;;;;;;12.66;100.00;101007.63;4976463;28;20208;-74
2023/10/09 01:24:04;;;;;;;9.30;5.20;;;;;;;12.67;100.00;100998.78;4979360;28;20232;-72
2023/10/09 01:26:44;;;;;;;12.73;5.60;;;;;;;12.55;100.00;100988.88;4981320;28;20204;-75
2023/10/09 01:29:18;;;;;;;9.97;5.30;;;;;;;12.61;100.00;100988.06;4976384;28;20676;-74
2023/10/09 01:31:56;;;;;;;14.07;5.80;;;;;;;12.61;100.00;101001.34;4979028;28;20227;-73
2023/10/09 01:34:32;;;;;;;12.67;5.47;;;;;;;12.59;100.00;100994.25;4981673;28;20317;-71
2023/10/09 01:36:59;;;;;;;11.73;5.47;;;;;;;12.59;100.00;100989.81;4980100;28;20208;-73
2023/10/09 01:39:40;;;;;;;11.83;5.40;;;;;;;12.51;100.00;100983.50;4980259;28;20212;-74
2023/10/09 01:42:07;;;;;;;12.87;5.47;;;;;;;12.61;100.00;100997.81;4982310;28;20291;-73
2023/10/09 01:44:42;;;;;;;14.47;5.93;;;;;;;12.63;100.00;100990.75;4981016;28;20217;-74
2023/10/09 01:47:13;;;;;;;11.43;5.40;;;;;;;12.58;100.00;100982.72;4981977;28;20303;-75
2023/10/09 01:49:43;;;;;;;9.63;5.53;;;;;;;12.62;100.00;100987.19;4979867;28;20687;-72
2023/10/09 01:52:15;;;;;;;9.80;4.93;;;;;;;12.54;100.00;100975.56;4980978;28;20292;-73
2023/10/09 01:54:49;;;;;;;12.10;7.03;;;;;;;12.51;100.00;100986.16;4981362;28;20212;-73
2023/10/09 01:57:24;;;;;;;10.73;5.73;;;;;;;12.56;100.00;100979.16;4981882;28;20307;-72
2023/10/09 01:59:53;;;;;;;17.27;6.27;;;;;;;12.60;100.00;100985.41;4981189;28;20226;-73
2023/10/09 02:02:26;;;;;;;12.40;5.80;;;;;;;12.60;100.00;100991.59;4978610;28;20208;-72
2023/10/09 02:07:51;;;;;;;10.17;5.83;;;;;;;12.50;100.00;100979.94;4980292;28;20213;-73
2023/10/09 02:13:10;;;;;;;9.47;5.53;;;;;;;12.53;100.00;100997.69;4981799;28;20225;-73
2023/10/09 02:26:25;;;;;;;13.97;6.00;;;;;;;12.33;100.00;100976.13;4980288;28;20220;-72
2023/10/09 02:31:40;;;;;;;13.70;5.17;;;;;;;12.37;100.00;100980.59;4979679;28;20202;-76
2023/10/09 02:34:15;;;;;;;15.30;5.03;;;;;;;12.36;100.00;100964.66;4982441;28;20232;-71
2023/10/09 02:36:42;;;;;;;10.87;5.33;;;;;;;12.34;100.00;100969.03;4980933;28;20208;-74
2023/10/09 02:39:24;;;;;;;11.63;5.77;;;;;;;12.29;100.00;100963.66;4979707;28;20201;-75
2023/10/09 02:42:01;;;;;;;11.60;5.40;;;;;;;12.22;100.00;100952.06;4980037;28;20193;-73
2023/10/09 02:44:39;;;;;;;9.43;5.03;;;;;;;12.25;100.00;100967.16;4982492;28;20225;-74
2023/10/09 02:47:11;;;;;;;9.93;5.30;;;;;;;12.23;100.00;100958.28;4979633;28;20263;-75
2023/10/09 02:49:40;;;;;;;11.23;5.33;;;;;;;12.17;100.00;100952.88;4977386;28;20228;-73
2023/10/09 02:52:07;;;;;;;15.97;5.73;;;;;;;12.33;100.00;100962.84;4980264;28;20228;-74
2023/10/09 02:54:41;;;;;;;11.80;5.73;;;;;;;12.23;100.00;100947.66;4979138;28;20303;-72
2023/10/09 02:57:08;;;;;;;10.73;5.30;;;;;;;12.30;100.00;100948.63;4978158;28;20201;-71
2023/10/09 02:59:38;;;;;;;11.47;6.20;;;;;;;12.23;100.00;100955.59;4980373;28;20204;-74
2023/10/09 03:02:07;;;;;;;11.27;5.70;;;;;;;12.27;100.00;100948.59;4979588;28;20201;-74
2023/10/09 03:04:33;;;;;;;9.27;5.33;;;;;;;12.22;100.00;100943.19;4978206;28;20229;-72
2023/10/09 03:07:00;;;;;;;8.60;5.13;;;;;;;12.18;100.00;100950.22;4979006;28;20212;-73
2023/10/09 03:09:27;;;;;;;12.07;5.40;;;;;;;12.15;100.00;100943.97;4978557;28;20309;-72
2023/10/09 03:12:02;;;;;;;10.83;5.30;;;;;;;12.20;100.00;100952.91;4980339;28;20722;-72
2023/10/09 03:14:30;;;;;;;10.50;4.93;;;;;;;12.15;100.00;100938.66;4975996;28;20224;-75
2023/10/09 03:16:58;;;;;;;12.70;5.57;;;;;;;12.15;100.00;100944.88;4978412;28;20760;-75
2023/10/09 03:19:28;;;;;;;9.93;5.50;;;;;;;12.28;100.00;100942.41;4980252;28;20260;-71
2023/10/09 03:21:58;;;;;;;9.03;4.83;;;;;;;12.17;100.00;100936.94;4978139;28;20685;-73
2023/10/09 03:24:27;;;;;;;8.00;4.47;;;;;;;12.08;100.00;100928.81;4980486;28;20220;-73
2023/10/09 03:26:55;;;;;;;13.00;5.60;;;;;;;12.19;100.00;100937.84;4978960;28;20283;-73
2023/10/09 03:29:23;;;;;;;10.67;5.30;;;;;;;12.12;100.00;100931.56;4979513;28;20213;-73
2023/10/09 03:31:53;;;;;;;11.07;5.70;;;;;;;12.13;100.00;100929.78;4980498;28;20239;-73
2023/10/09 03:34:19;;;;;;;10.17;5.20;;;;;;;12.16;100.00;100932.50;4978620;28;20343;-74
2023/10/09 03:36:48;;;;;;;11.53;6.13;;;;;;;12.14;100.00;100928.91;4980053;28;20204;-74
2023/10/09 03:42:00;;;;;;;8.60;5.70;;;;;;;12.23;100.00;100919.31;5010130;22;20627;-80
2023/10/09 03:44:30;;;;;;;8.83;5.40;;;;;;;12.20;100.00;100918.38;4995502;28;20262;-81
2023/10/09 03:46:56;;;;;;;11.53;5.77;;;;;;;12.24;100.00;100917.56;4996681;28;20219;-80
2023/10/09 03:49:26;;;;;;;12.17;6.10;;;;;;;12.40;100.00;100934.59;4993438;28;20298;-80
2023/10/09 03:51:52;;;;;;;9.10;5.40;;;;;;;12.41;100.00;100936.44;4993633;28;20275;-81
2023/10/09 03:54:20;;;;;;;11.73;5.70;;;;;;;12.38;100.00;100928.38;4988837;28;20724;-79
2023/10/09 03:56:49;;;;;;;13.33;6.20;;;;;;;12.38;100.00;100925.72;4989335;28;20286;-81
2023/10/09 03:59:19;;;;;;;13.77;5.60;;;;;;;12.37;100.00;100934.56;4988303;28;20254;-81
2023/10/09 04:01:48;;;;;;;11.27;5.30;;;;;;;12.45;100.00;100932.94;4985097;28;20235;-80
2023/10/09 04:04:15;;;;;;;10.77;5.33;;;;;;;12.32;100.00;100925.63;4988684;28;20669;-80
2023/10/09 04:06:41;;;;;;;10.20;5.00;;;;;;;12.26;100.00;100928.22;4989537;28;20274;-81
2023/10/09 04:11:46;;;;;;;11.83;5.33;;;;;;;12.21;100.00;100934.34;4986111;28;20229;-79
2023/10/09 04:14:24;;;;;;;11.90;5.83;;;;;;;12.18;100.00;100931.66;4992029;28;20331;-80
2023/10/09 04:16:51;;;;;;;9.07;5.33;;;;;;;12.13;100.00;100933.34;4987363;28;20294;-80
2023/10/09 04:19:22;;;;;;;13.67;5.50;;;;;;;12.18;100.00;100926.34;4988698;28;20205;-82
2023/10/09 04:21:48;;;;;;;9.97;5.37;;;;;;;12.15;100.00;100925.41;4987719;28;20217;-81
2023/10/09 04:26:46;;;;;;;11.37;5.13;;;;;;;12.08;100.00;100921.75;4985531;28;20205;-80
2023/10/09 04:29:26;;;;;;;11.57;5.53;;;;;;;12.08;100.00;100927.06;4985540;28;20212;-79
2023/10/09 04:31:56;;;;;;;10.60;5.40;;;;;;;12.10;100.00;100917.38;4988670;28;20791;-81
2023/10/09 04:34:28;;;;;;;15.33;5.50;;;;;;;12.12;100.00;100922.69;4987543;28;20264;-80
2023/10/09 04:37:00;;;;;;;8.60;5.10;;;;;;;12.17;100.00;100918.34;4987170;28;20495;-82
2023/10/09 04:42:19;;;;;;;11.07;6.00;;;;;;;12.16;100.00;100930.72;4984518;28;20319;-80
2023/10/09 04:44:59;;;;;;;9.47;5.20;;;;;;;12.17;100.00;100931.63;4986223;28;20272;-81
2023/10/09 04:47:36;;;;;;;11.80;6.17;;;;;;;12.25;100.00;100927.31;4987231;28;20205;-80
2023/10/09 04:50:36;;;;;;;13.63;6.03;;;;;;;12.22;100.00;100933.47;4986807;28;20575;-81
2023/10/09 04:55:44;;;;;;;9.10;5.23;;;;;;;12.23;100.00;100926.41;4989177;28;20324;-81
2023/10/09 04:58:23;;;;;;;11.90;5.33;;;;;;;12.19;100.00;100921.91;4986147;28;20245;-81
2023/10/09 05:03:29;;;;;;;12.43;5.77;;;;;;;12.13;100.00;100924.47;4989698;28;20296;-79
2023/10/09 05:05:59;;;;;;;10.57;4.77;;;;;;;12.11;100.00;100923.56;4990552;28;20216;-81
2023/10/09 05:16:26;;;;;;;11.63;5.57;;;;;;;12.10;100.00;100913.81;4989149;28;20223;-81
2023/10/09 05:18:59;;;;;;;13.63;6.43;;;;;;;12.19;100.00;100919.25;4988587;28;20208;-80
2023/10/09 05:24:23;;;;;;;10.50;5.63;;;;;;;12.29;100.00;100930.91;4992498;28;20202;-80
2023/10/09 05:29:19;;;;;;;11.10;6.00;;;;;;;12.35;100.00;100931.88;4987736;28;20244;-81
2023/10/09 05:31:56;;;;;;;15.17;6.43;;;;;;;12.35;100.00;100931.88;4990822;28;20229;-80
2023/10/09 05:34:33;;;;;;;11.00;5.53;;;;;;;12.36;100.00;100941.63;4991208;28;20228;-81
2023/10/09 05:47:57;;;;;;;10.90;6.47;;;;;;;12.44;100.00;100929.38;4986915;28;20201;-80
2023/10/09 06:11:06;;;;;;;16.67;6.40;;;;;;;12.68;100.00;100951.84;4992483;28;20204;-81
2023/10/09 06:13:40;;;;;;;12.77;6.80;;;;;;;12.72;100.00;100953.66;4989539;28;20303;-80
2023/10/09 06:16:19;;;;;;;16.57;6.87;;;;;;;12.72;100.00;100940.38;4987268;28;20201;-81
2023/10/09 06:24:17;;;;;;;13.40;6.20;;;;;;;12.71;100.00;100946.56;4990417;28;20205;-79
2023/10/09 06:29:38;;;;;;;15.50;6.60;;;;;;;12.76;100.00;100947.53;4988471;28;20646;-79
2023/10/09 06:34:56;;;;;;;14.17;6.40;;;;;;;12.84;100.00;100946.78;4991474;28;20781;-81
2023/10/09 06:42:34;;;;;;;16.00;6.93;;;;;;;13.00;100.00;100955.81;4990454;28;20237;-76
2023/10/09 06:47:41;;;;;;;18.43;7.07;;;;;;;13.03;100.00;100947.00;4990972;28;20292;-75
2023/10/09 06:52:58;;;;;;;19.83;8.97;;;;;;;13.06;100.00;100945.25;4988467;28;20372;-74
2023/10/09 06:55:36;;;;;;;19.07;8.73;;;;;;;13.10;100.00;100954.16;4990524;28;20204;-75
2023/10/09 06:58:09;;;;;;;25.40;8.10;;;;;;;13.12;100.00;100958.63;4983043;28;20266;-73
2023/10/09 07:00:54;;;;;;;17.50;8.13;;;;;;;13.16;100.00;100949.81;4989937;28;20215;-73
2023/10/09 07:03:29;;;;;;;15.27;7.50;;;;;;;13.20;100.00;100949.88;4989451;28;20221;-72
2023/10/09 07:06:09;;;;;;;14.60;7.10;;;;;;;13.29;100.00;100952.66;4984259;28;20255;-74
2023/10/09 07:08:57;;;;;;;19.53;7.60;;;;;;;13.33;100.00;100958.03;4978405;28;20247;-73
2023/10/09 07:14:06;;;;;;;13.43;7.63;;;;;;;13.54;100.00;100953.81;4987223;28;20290;-71
2023/10/09 07:16:39;;;;;;;16.37;6.83;;;;;;;13.65;100.00;100954.84;4987236;28;20211;-73
2023/10/09 07:21:54;;;;;;;16.67;6.27;;;;;;;13.84;100.00;100961.22;4983521;28;20220;-71
2023/10/09 07:24:34;;;;;;;11.67;6.37;;;;;;;13.94;100.00;100973.72;4989528;28;20219;-71
2023/10/09 07:27:06;;;;;;;11.63;5.57;;;;;;;14.06;100.00;100973.84;4982256;28;20201;-72
2023/10/09 07:29:47;;;;;;;13.63;6.37;;;;;;;14.16;100.00;100973.03;4980353;28;20216;-72
2023/10/09 07:32:20;;;;;;;13.53;6.80;;;;;;;14.29;100.00;100971.34;4986365;28;20231;-72
2023/10/09 07:34:54;;;;;;;22.03;6.63;;;;;;;14.39;100.00;100965.19;4990609;28;20252;-71
2023/10/09 07:37:22;;;;;;;21.33;7.27;;;;;;;14.55;100.00;100961.81;4989117;28;20201;-70
2023/10/09 07:39:58;;;;;;;16.43;7.10;;;;;;;14.69;100.00;100953.88;4974545;28;20623;-72
2023/10/09 07:48:02;;;;;;;10.37;5.57;;;;;;;15.17;100.00;100979.00;4986321;28;20318;-73
2023/10/09 07:50:49;;;;;;;12.37;5.77;;;;;;;15.31;100.00;100974.63;4972576;28;20371;-72
2023/10/09 07:53:25;;;;;;;13.73;5.20;;;;;;;15.43;100.00;100980.00;4978517;28;20308;-76
2023/10/09 07:55:58;;;;;;;12.33;5.13;;;;;;;15.46;100.00;100984.47;4977694;28;20661;-75
2023/10/09 07:58:25;;;;;;;14.33;5.67;;;;;;;15.53;100.00;100981.81;4975635;28;20207;-75
2023/10/09 08:01:15;;;;;;;12.97;5.27;;;;;;;15.76;100.00;100984.56;4986624;28;20288;-75
2023/10/09 08:03:45;;;;;;;9.33;4.90;;;;;;;16.01;100.00;100974.81;4987446;28;20613;-75
2023/10/09 08:12:13;;;;;;;7.97;4.80;;;;;;;16.81;100.00;100979.22;4986877;28;20700;-74
2023/10/09 08:14:42;;;;;;;11.23;4.90;;;;;;;17.01;100.00;100965.78;4987704;28;20721;-75
2023/10/09 08:17:15;;;;;;;10.17;4.77;;;;;;;17.04;100.00;100971.13;4984939;28;20654;-74
2023/10/09 08:19:56;;;;;;;8.63;4.63;;;;;;;17.12;100.00;100968.41;4992848;28;20280;-75
2023/10/09 08:24:57;;;;;;;12.67;3.87;;;;;;;17.46;100.00;100975.38;4986586;28;20205;-74
2023/10/09 08:33:03;;;;;;;8.53;4.20;;;;;;;17.60;100.00;100990.47;4988891;28;20230;-73
2023/10/09 08:35:46;;;;;;;6.13;3.73;;;;;;;17.48;100.00;100995.00;4986730;28;20212;-74
2023/10/09 08:38:13;;;;;;;11.03;3.93;;;;;;;17.48;100.00;100981.63;4989186;28;20201;-73
2023/10/09 08:40:41;;;;;;;12.17;3.83;;;;;;;17.48;100.00;100992.34;4988054;28;20292;-74
2023/10/09 08:43:14;;;;;;;8.87;3.60;;;;;;;17.45;100.00;100986.09;4990622;28;20647;-74
2023/10/09 08:45:46;;;;;;;7.50;3.77;;;;;;;17.37;100.00;100993.28;4990853;28;20201;-73
2023/10/09 08:48:17;;;;;;;11.77;4.53;;;;;;;17.22;100.00;100986.22;4992951;28;20252;-74
2023/10/09 08:50:45;;;;;;;9.37;3.67;;;;;;;17.32;100.00;100987.97;4991460;28;20584;-74
2023/10/09 08:53:13;;;;;;;9.13;4.40;;;;;;;17.42;100.00;100987.00;4989267;28;20224;-71
2023/10/09 08:55:40;;;;;;;12.00;4.20;;;;;;;17.54;100.00;100983.38;4983839;28;20212;-71
2023/10/09 08:58:19;;;;;;;14.70;4.47;;;;;;;17.57;100.00;100995.84;4989400;28;20201;-71
2023/10/09 09:00:48;;;;;;;15.73;4.37;;;;;;;17.54;100.00;101011.03;4988948;28;20613;-71
2023/10/09 09:03:17;;;;;;;9.13;4.10;;;;;;;17.49;100.00;101011.97;4991624;28;20224;-72
2023/10/09 09:05:56;;;;;;;10.70;4.50;;;;;;;17.48;100.00;101002.16;4991034;28;20256;-72
2023/10/09 09:08:25;;;;;;;12.60;4.20;;;;;;;17.54;100.00;100999.44;4990098;28;20335;-71
2023/10/09 09:13:48;;;;;;;14.15;4.40;;;;;;;17.70;100.00;101005.66;4991974;28;20248;-71
2023/10/09 09:16:29;;;;;;;6.15;3.83;;;;;;;17.87;100.00;101010.91;4990609;28;20210;-71
2023/10/09 09:19:03;;;;;;;11.77;4.07;;;;;;;17.83;100.00;101010.03;4992848;28;20197;-73
2023/10/09 09:21:36;;;;;;;9.38;4.53;;;;;;;17.85;100.00;101005.56;4991221;28;20709;-75
2023/10/09 09:24:14;;;;;;;8.15;3.92;;;;;;;17.81;100.00;101012.72;4985420;28;20212;-75
2023/10/09 09:26:45;;;;;;;6.57;3.67;;;;;;;17.84;100.00;101009.13;4993349;28;20327;-76
2023/10/09 09:29:19;;;;;;;9.60;4.72;;;;;;;17.96;100.00;101026.91;4993389;28;20263;-75
2023/10/09 09:31:53;;;;;;;10.63;3.97;;;;;;;18.03;100.00;101007.22;4990509;28;20303;-74
2023/10/09 09:34:25;;;;;;;12.60;3.97;;;;;;;18.18;100.00;101004.44;4986806;28;20224;-75
2023/10/09 09:36:54;;;;;;;10.88;3.88;;;;;;;18.38;100.00;101009.59;4991179;28;20209;-75
2023/10/09 09:39:27;;;;;;;9.65;3.78;;;;;;;18.44;100.00;101009.59;4990178;28;20259;-75
2023/10/09 09:42:07;;;;;;;9.77;3.42;;;;;;;18.42;100.00;101014.06;5017055;22;20246;-69
2023/10/09 09:44:43;;;;;;;7.40;3.70;;;;;;;18.45;100.00;101011.38;4980612;28;20193;-69
2023/10/09 09:47:13;;;;;;;7.60;3.40;;;;;;;18.57;100.00;101019.28;4983300;28;20220;-70
2023/10/09 09:49:42;;;;;;;8.15;3.97;;;;;;;18.51;100.00;101034.56;4984536;28;20201;-68
2023/10/09 09:52:11;;;;;;;8.65;3.92;;;;;;;18.70;100.00;101029.03;4987381;28;20225;-69
2023/10/09 09:54:39;;;;;;;7.03;3.55;;;;;;;18.74;100.00;101025.41;4978959;28;20221;-69
2023/10/09 09:57:10;;;;;;;8.95;3.78;;;;;;;18.88;100.00;101036.03;4984662;28;20205;-72
2023/10/09 09:59:52;;;;;;;13.20;4.50;;;;;;;18.92;100.00;101034.19;4991338;28;20299;-69
2023/10/09 10:02:28;;;;;;;8.88;4.22;;;;;;;19.09;100.00;101034.88;4983468;28;20228;-70
2023/10/09 10:04:57;;;;;;;8.95;3.65;;;;;;;19.10;100.00;101033.97;4991372;28;20200;-69
2023/10/09 10:07:25;;;;;;;12.52;3.95;;;;;;;19.08;100.00;101030.44;4983930;28;20205;-69
2023/10/09 10:09:54;;;;;;;7.82;3.85;;;;;;;19.22;100.00;101030.28;4986106;28;20220;-69
2023/10/09 10:13:00;;;;;;;9.10;3.97;;;;;;;19.25;100.00;100996.22;4983055;28;20231;-69
2023/10/09 10:16:08;;;;;;;10.43;4.30;;;;;;;19.51;100.00;101017.38;4977279;28;20224;-73
2023/10/09 10:19:21;;;;;;;7.82;3.80;;;;;;;19.71;100.00;101017.13;4983920;28;20229;-70
2023/10/09 10:21:49;;;;;;;9.73;4.30;;;;;;;19.67;100.00;101020.78;4976257;28;20815;-70
2023/10/09 10:24:30;;;;;;;6.63;3.60;;;;;;;19.80;100.00;101019.69;4980524;28;20308;-72
2023/10/09 10:27:09;;;;;;;6.50;3.58;;;;;;;19.97;100.00;101012.25;4987371;28;20212;-71
2023/10/09 10:29:38;;;;;;;8.40;3.97;;;;;;;20.23;100.00;101019.94;4989214;28;20208;-72
2023/10/09 10:32:08;;;;;;;11.85;4.60;;;;;;;20.50;100.00;101012.34;4984102;28;20220;-71
2023/10/09 10:34:55;;;;;;;12.05;4.57;;;;;;;20.78;100.00;100991.19;4981671;28;20308;-70
2023/10/09 10:37:51;;;;;;;9.98;5.05;;;;;;;21.05;97.46;100969.13;4983072;28;20215;-72
2023/10/09 10:41:11;;;;;;;9.27;4.60;;;;;;;21.43;95.91;100971.03;4982368;28;20201;-73
2023/10/09 10:43:34;;;;;;;8.85;4.15;;;;;;;21.80;92.19;100964.81;4980406;28;20311;-71
2023/10/09 10:46:04;;;;;;;12.75;4.72;;;;;;;22.12;87.98;100969.47;4987664;28;20288;-71
2023/10/09 10:48:38;;;;;;;12.82;4.90;;;;;;;22.45;87.34;100984.81;4988275;28;20219;-70
2023/10/09 10:51:04;;;;;;;12.55;5.20;;;;;;;22.70;80.72;100978.75;4974545;28;20211;-71
2023/10/09 10:53:49;;;;;;;14.60;5.43;;;;;;;22.59;80.80;100976.34;4978113;28;20701;-70
2023/10/09 11:04:38;;;;;;;12.23;5.65;;;;;;;22.33;82.44;100985.09;4981996;28;20610;-67
2023/10/09 11:12:45;;;;;;;19.08;5.82;;;;;;;22.17;85.17;100976.53;4984428;28;20313;-68
2023/10/09 11:18:04;;;;;;;16.35;5.38;;;;;;;22.38;84.37;100966.97;4980304;28;20629;-71
2023/10/09 11:20:34;;;;;;;13.35;5.90;;;;;;;22.73;81.75;100944.44;4989862;28;20222;-70
2023/10/09 11:25:50;;;;;;;10.10;4.80;;;;;;;22.90;75.17;100935.03;4977688;28;20586;-71
2023/10/09 11:28:31;;;;;;;11.13;4.80;;;;;;;23.20;74.17;100944.91;4986905;28;20235;-69
2023/10/09 11:31:16;;;;;;;9.93;4.18;;;;;;;23.55;74.07;100938.47;4982549;28;20212;-74
2023/10/09 11:33:51;;;;;;;9.85;4.65;;;;;;;23.91;72.79;100936.41;4995074;28;20697;-72
2023/10/09 11:36:31;;;;;;;10.20;4.32;;;;;;;24.31;70.65;100925.16;4981184;28;20216;-72
2023/10/09 11:39:17;;;;;;;9.02;4.65;;;;;;;24.31;68.17;100911.63;4986274;28;20247;-73
2023/10/09 11:41:44;;;;;;;15.80;5.18;;;;;;;23.97;70.10;100935.31;4988422;28;20235;-71
2023/10/09 11:44:23;;;;;;;10.63;4.15;;;;;;;23.78;71.79;100924.25;4987920;28;20200;-73
2023/10/09 11:50:12;;;;;;;9.55;4.00;;;;;;;23.64;71.26;100908.47;4988965;28;20232;-72
2023/10/09 11:53:17;;;;;;;10.20;4.53;;;;;;;23.86;70.62;100910.44;4989493;28;20256;-71
2023/10/09 11:55:48;;;;;;;11.43;4.13;;;;;;;23.25;72.60;100904.28;4983089;28;20228;-72
2023/10/09 11:58:22;;;;;;;8.57;3.97;;;;;;;23.44;70.95;100898.22;4988523;28;20207;-71
2023/10/09 12:00:59;;;;;;;7.18;3.35;;;;;;;23.55;69.72;100905.09;4985669;28;20207;-72
2023/10/09 12:03:29;;;;;;;9.82;3.72;;;;;;;23.82;70.36;100892.56;4988915;28;20231;-70
2023/10/09 12:06:05;;;;;;;8.27;3.92;;;;;;;24.10;66.60;100890.69;4988061;28;20197;-72
2023/10/09 12:08:32;;;;;;;6.43;3.47;;;;;;;24.23;66.54;100893.84;4990307;28;20703;-72
2023/10/09 12:10:58;;;;;;;6.40;3.47;;;;;;;24.28;65.36;100881.97;4988125;28;20209;-74
2023/10/09 12:13:25;;;;;;;6.18;3.40;;;;;;;24.56;65.97;100883.69;4981027;28;20750;-74
2023/10/09 12:15:53;;;;;;;8.18;3.28;;;;;;;24.80;65.06;100879.16;4988110;28;20228;-72
2023/10/09 12:18:20;;;;;;;11.23;3.50;;;;;;;24.54;63.14;100891.00;4986264;28;20228;-72
2023/10/09 12:20:50;;;;;;;6.70;3.13;;;;;;;24.61;62.31;100884.41;4986083;28;20252;-72
2023/10/09 12:23:19;;;;;;;8.20;3.40;;;;;;;24.55;62.25;100876.50;4984692;28;20237;-70
2023/10/09 12:25:48;;;;;;;6.57;3.35;;;;;;;24.63;62.28;100874.41;4988297;28;20628;-71
2023/10/09 12:28:20;;;;;;;6.55;3.08;;;;;;;24.65;61.26;100873.41;4988056;28;20205;-73
2023/10/09 12:30:50;;;;;;;8.15;3.42;;;;;;;24.38;61.94;100874.38;4978375;28;20209;-71
2023/10/09 12:33:19;;;;;;;9.30;3.65;;;;;;;24.23;62.23;100874.91;4988808;28;20720;-71
2023/10/09 12:35:47;;;;;;;7.63;3.08;;;;;;;24.22;62.54;100871.31;4982130;28;20220;-74
2023/10/09 12:38:18;;;;;;;7.13;3.17;;;;;;;24.24;61.84;100872.16;4987036;28;20207;-74
2023/10/09 12:40:51;;;;;;;7.05;2.85;;;;;;;24.36;63.17;100852.78;4976971;28;20742;-71
2023/10/09 12:43:19;;;;;;;6.55;3.20;;;;;;;24.55;61.95;100861.13;4987422;28;20233;-71
2023/10/09 12:45:46;;;;;;;5.93;3.33;;;;;;;24.49;63.13;100860.50;4988846;28;20305;-73
2023/10/09 12:48:14;;;;;;;9.43;3.05;;;;;;;24.82;62.46;100861.06;4987257;28;20217;-71
2023/10/09 12:50:47;;;;;;;7.07;3.25;;;;;;;24.73;60.21;100861.38;4977220;28;20200;-72
2023/10/09 12:53:17;;;;;;;6.50;3.03;;;;;;;24.73;60.38;100862.28;4988536;28;20236;-73
2023/10/09 12:55:44;;;;;;;7.28;3.65;;;;;;;24.87;60.02;100867.19;4990108;28;20217;-71
2023/10/09 12:58:18;;;;;;;8.23;3.15;;;;;;;24.72;59.19;100865.03;4985376;28;20198;-71
2023/10/09 13:00:48;;;;;;;8.88;3.42;;;;;;;24.88;56.52;100868.97;4983057;28;20239;-75
2023/10/09 13:03:18;;;;;;;6.53;3.35;;;;;;;24.79;56.34;100872.88;4978060;28;20224;-76
2023/10/09 13:05:54;;;;;;;9.30;3.90;;;;;;;24.92;58.55;100871.50;4976664;28;20284;-72
2023/10/09 13:08:36;;;;;;;7.15;3.22;;;;;;;24.91;55.90;100858.00;4982538;28;20205;-72
2023/10/09 13:11:12;;;;;;;7.75;3.10;;;;;;;24.81;55.18;100857.44;4986577;28;20613;-72
2023/10/09 13:13:40;;;;;;;7.70;3.30;;;;;;;24.91;55.54;100856.16;4982750;28;20220;-72
2023/10/09 13:16:27;;;;;;;6.80;3.40;;;;;;;24.95;54.83;100838.84;4986742;28;20644;-72
2023/10/09 13:18:56;;;;;;;7.85;3.25;;;;;;;24.98;51.98;100856.84;4992643;28;20204;-72
2023/10/09 13:21:31;;;;;;;6.07;2.95;;;;;;;25.05;53.44;100861.09;4982285;28;20204;-72
2023/10/09 13:24:00;;;;;;;8.13;3.10;;;;;;;25.02;52.13;100847.66;4981974;28;20669;-75
2023/10/09 13:26:29;;;;;;;6.07;3.17;;;;;;;25.21;51.58;100856.81;4986058;28;20581;-72
2023/10/09 13:29:01;;;;;;;6.80;3.20;;;;;;;25.24;51.13;100851.31;4992744;28;20201;-72
2023/10/09 13:31:33;;;;;;;7.35;3.53;;;;;;;25.42;50.57;100860.50;4989004;28;20702;-73
2023/10/09 13:34:01;;;;;;;7.22;3.30;;;;;;;25.30;50.22;100856.47;4987504;28;20197;-74
2023/10/09 13:36:31;;;;;;;8.95;3.38;;;;;;;25.31;49.73;100857.34;4984146;28;20295;-73
2023/10/09 13:39:52;;;;;;;7.13;3.13;;;;;;;25.17;48.95;100851.56;4981023;28;20205;-72
2023/10/09 13:41:57;;;;;;;6.38;3.50;;;;;;;25.04;50.03;100836.75;4993010;28;20317;-72
2023/10/09 13:44:28;;;;;;;6.47;3.30;;;;;;;25.08;49.62;100841.09;4981580;28;20669;-73
2023/10/09 13:47:04;;;;;;;6.97;3.72;;;;;;;25.11;50.70;100849.13;4987168;28;20204;-71
2023/10/09 13:49:32;;;;;;;6.85;3.05;;;;;;;25.22;50.07;100855.91;4985330;28;20201;-71
2023/10/09 13:52:01;;;;;;;8.73;3.47;;;;;;;25.22;52.31;100852.31;4988124;28;20304;-73
2023/10/09 13:56:59;;;;;;;10.95;3.92;;;;;;;25.02;50.92;100830.50;4988287;28;20391;-71
2023/10/09 13:59:25;;;;;;;7.43;3.45;;;;;;;24.99;50.75;100839.66;4989825;28;20204;-72
2023/10/09 14:01:56;;;;;;;7.45;3.50;;;;;;;25.01;51.48;100842.28;4989001;28;20232;-71
2023/10/09 14:04:23;;;;;;;8.48;3.67;;;;;;;24.95;52.80;100829.84;4989011;28;20303;-72
2023/10/09 14:06:56;;;;;;;7.28;3.55;;;;;;;25.09;50.80;100838.34;4990551;28;20207;-71
2023/10/09 14:09:27;;;;;;;7.00;3.25;;;;;;;24.97;50.70;100836.06;4991635;28;20216;-72
2023/10/09 14:12:06;;;;;;;6.68;3.20;;;;;;;24.77;52.86;100836.81;4981663;28;20920;-69
2023/10/09 14:14:49;;;;;;;8.70;3.35;;;;;;;24.85;52.74;100834.72;4983185;28;20262;-73
2023/10/09 14:17:25;;;;;;;8.00;3.38;;;;;;;24.75;52.54;100833.28;4987934;28;21124;-71
2023/10/09 14:19:52;;;;;;;6.43;3.53;;;;;;;24.76;52.05;100829.63;4982002;28;20197;-71
2023/10/09 14:22:21;;;;;;;8.05;3.58;;;;;;;24.75;55.10;100840.53;4981994;28;20224;-73
2023/10/09 14:24:55;;;;;;;9.43;3.63;;;;;;;24.72;54.31;100828.00;4987342;28;20684;-72